createdAt,value
2022-08-26T00:02:12.777Z,21.47
2022-08-26T00:04:41.148Z,21.38
2022-08-26T00:07:08.937Z,21.41
2022-08-26T00:09:37.173Z,21.47
2022-08-26T00:12:09.328Z,21.58
2022-08-26T00:14:40.729Z,21.65
2022-08-26T00:17:08.711Z,21.55
2022-08-26T00:19:36.630Z,21.39
2022-08-26T00:22:04.543Z,21.58
2022-08-26T00:24:32.779Z,21.40
2022-08-26T00:27:00.492Z,21.44
2022-08-26T00:29:28.530Z,21.41
2022-08-26T00:31:59.601Z,21.33
2022-08-26T00:34:27.227Z,21.26
2022-08-26T00:36:54.893Z,21.16
2022-08-26T00:39:22.936Z,21.24
2022-08-26T00:41:50.655Z,21.45
2022-08-26T00:44:19.686Z,21.40
2022-08-26T00:46:53.328Z,21.39
2022-08-26T00:49:38.672Z,21.37
2022-08-26T00:52:12.060Z,21.30
2022-08-26T00:54:47.711Z,21.25
2022-08-26T00:57:18.286Z,21.40
2022-08-26T00:59:49.734Z,21.24
2022-08-26T01:02:19.963Z,21.22
2022-08-26T01:04:54.427Z,21.25
2022-08-26T01:07:27.572Z,21.34
2022-08-26T01:10:01.190Z,21.33
2022-08-26T01:12:34.231Z,21.33
2022-08-26T01:15:03.020Z,21.23
2022-08-26T01:17:33.744Z,21.09
2022-08-26T01:20:26.658Z,21.23
2022-08-26T01:23:03.242Z,21.01
2022-08-26T01:25:34.110Z,21.18
2022-08-26T01:28:09.041Z,21.22
2022-08-26T01:30:39.831Z,21.29
2022-08-26T01:33:16.247Z,21.23
2022-08-26T01:35:46.504Z,21.30
2022-08-26T01:38:17.679Z,21.30
2022-08-26T01:40:46.005Z,21.28
2022-08-26T01:43:21.920Z,21.31
2022-08-26T01:45:50.688Z,21.13
2022-08-26T01:48:26.250Z,21.24
2022-08-26T01:50:54.023Z,21.28
2022-08-26T01:53:24.334Z,21.25
2022-08-26T01:55:57.210Z,21.30
2022-08-26T01:58:43.662Z,21.20
2022-08-26T02:01:12.062Z,21.42
2022-08-26T02:04:05.428Z,21.47
2022-08-26T02:06:36.808Z,21.37
2022-08-26T02:09:06.288Z,21.50
2022-08-26T02:11:34.961Z,21.36
2022-08-26T02:14:16.005Z,21.42
2022-08-26T02:16:48.015Z,21.29
2022-08-26T02:19:23.795Z,21.24
2022-08-26T02:21:53.222Z,21.39
2022-08-26T02:24:27.567Z,21.32
2022-08-26T02:26:58.123Z,21.32
2022-08-26T02:29:33.221Z,21.41
2022-08-26T02:32:01.069Z,21.41
2022-08-26T02:34:35.072Z,21.25
2022-08-26T02:37:09.810Z,21.38
2022-08-26T02:39:41.357Z,21.39
2022-08-26T02:42:10.134Z,21.02
2022-08-26T02:44:37.931Z,21.20
2022-08-26T02:47:07.836Z,21.14
2022-08-26T02:49:37.572Z,21.32
2022-08-26T02:52:05.348Z,21.14
2022-08-26T02:54:33.196Z,21.11
2022-08-26T02:57:01.260Z,21.14
2022-08-26T02:59:29.690Z,21.11
2022-08-26T03:01:57.922Z,21.07
2022-08-26T03:04:26.127Z,21.15
2022-08-26T03:06:55.429Z,21.34
2022-08-26T03:09:24.570Z,21.08
2022-08-26T03:11:53.111Z,21.26
2022-08-26T03:14:24.061Z,21.23
2022-08-26T03:16:54.422Z,21.24
2022-08-26T03:19:24.791Z,21.23
2022-08-26T03:21:57.946Z,21.27
2022-08-26T03:24:26.754Z,21.36
2022-08-26T03:26:54.456Z,21.28
2022-08-26T03:29:42.018Z,21.41
2022-08-26T03:32:10.038Z,21.29
2022-08-26T03:34:38.653Z,21.34
2022-08-26T03:37:06.436Z,21.21
2022-08-26T03:39:34.179Z,21.29
2022-08-26T03:42:02.001Z,21.30
2022-08-26T03:44:29.617Z,21.28
2022-08-26T03:46:57.987Z,21.23
2022-08-26T03:49:25.701Z,21.12
2022-08-26T03:51:56.906Z,21.25
2022-08-26T03:54:24.667Z,21.22
2022-08-26T03:56:52.422Z,21.11
2022-08-26T03:59:21.026Z,21.13
2022-08-26T04:01:48.911Z,21.06
2022-08-26T04:04:17.152Z,21.06
2022-08-26T04:06:45.082Z,21.12
2022-08-26T04:09:21.026Z,21.19
2022-08-26T04:11:50.526Z,20.96
2022-08-26T04:14:23.750Z,21.19
2022-08-26T04:16:53.369Z,21.16
2022-08-26T04:19:24.879Z,20.99
2022-08-26T04:21:53.851Z,21.21
2022-08-26T04:24:25.760Z,21.17
2022-08-26T04:26:53.847Z,21.08
2022-08-26T04:29:25.522Z,21.13
2022-08-26T04:31:55.900Z,21.21
2022-08-26T04:34:27.246Z,21.25
2022-08-26T04:36:58.138Z,21.15
2022-08-26T04:39:27.723Z,20.92
2022-08-26T04:41:55.819Z,21.10
2022-08-26T04:44:28.722Z,21.04
2022-08-26T04:46:58.389Z,21.04
2022-08-26T04:49:27.581Z,21.14
2022-08-26T04:51:55.459Z,21.14
2022-08-26T04:54:23.727Z,21.05
2022-08-26T04:56:53.323Z,21.08
2022-08-26T04:59:21.184Z,21.06
2022-08-26T05:01:52.163Z,21.22
2022-08-26T05:04:21.065Z,21.22
2022-08-26T05:06:50.018Z,21.18
2022-08-26T05:09:20.751Z,21.26
2022-08-26T05:11:52.147Z,21.16
2022-08-26T05:14:23.488Z,21.05
2022-08-26T05:16:52.243Z,21.03
2022-08-26T05:19:21.056Z,21.17
2022-08-26T05:21:49.413Z,20.97
2022-08-26T05:24:18.097Z,20.95
2022-08-26T05:26:48.107Z,20.98
2022-08-26T05:29:16.821Z,21.00
2022-08-26T05:31:44.613Z,20.91
2022-08-26T05:34:13.364Z,21.09
2022-08-26T05:36:41.748Z,21.00
2022-08-26T05:39:10.432Z,21.01
2022-08-26T05:41:41.300Z,21.01
2022-08-26T05:44:15.480Z,21.07
2022-08-26T05:46:44.856Z,21.11
2022-08-26T05:49:16.202Z,21.21
2022-08-26T05:51:47.652Z,21.25
2022-08-26T05:54:21.795Z,21.23
2022-08-26T05:56:51.649Z,21.23
2022-08-26T05:59:24.312Z,20.99
2022-08-26T06:01:54.738Z,21.22
2022-08-26T06:04:27.672Z,21.06
2022-08-26T06:06:58.420Z,21.05
2022-08-26T06:09:27.026Z,21.14
2022-08-26T06:11:55.961Z,21.08
2022-08-26T06:14:23.663Z,21.08
2022-08-26T06:16:52.001Z,21.18
2022-08-26T06:19:22.181Z,21.13
2022-08-26T06:21:54.918Z,21.16
2022-08-26T06:24:41.820Z,21.27
2022-08-26T06:27:13.585Z,21.22
2022-08-26T06:29:41.893Z,21.32
2022-08-26T06:32:09.553Z,21.29
2022-08-26T06:34:38.390Z,21.32
2022-08-26T06:37:06.679Z,21.43
2022-08-26T06:39:34.644Z,21.50
2022-08-26T06:42:06.141Z,21.32
2022-08-26T06:44:34.928Z,21.32
2022-08-26T06:47:02.565Z,21.51
2022-08-26T06:49:30.223Z,21.40
2022-08-26T06:52:00.877Z,21.27
2022-08-26T06:54:31.494Z,21.31
2022-08-26T06:56:59.525Z,21.45
2022-08-26T06:59:27.484Z,21.55
2022-08-26T07:01:55.463Z,21.54
2022-08-26T07:04:25.024Z,21.48
2022-08-26T07:06:56.614Z,21.35
2022-08-26T07:09:30.486Z,21.49
2022-08-26T07:11:58.797Z,21.55
2022-08-26T07:14:26.923Z,21.46
2022-08-26T07:16:55.096Z,21.15
2022-08-26T07:19:30.014Z,21.36
2022-08-26T07:22:02.128Z,21.13
2022-08-26T07:24:36.127Z,21.37
2022-08-26T07:27:07.313Z,21.21
2022-08-26T07:29:39.424Z,21.36
2022-08-26T07:32:08.388Z,21.39
2022-08-26T07:34:38.230Z,21.39
2022-08-26T07:37:08.670Z,21.57
2022-08-26T07:39:37.363Z,21.64
2022-08-26T07:42:07.777Z,21.61
2022-08-26T07:44:37.997Z,21.90
2022-08-26T07:47:10.426Z,21.78
2022-08-26T07:49:56.231Z,21.93
2022-08-26T07:52:27.921Z,21.90
2022-08-26T07:55:01.548Z,21.75
2022-08-26T07:57:30.488Z,21.93
2022-08-26T07:59:59.691Z,21.98
2022-08-26T08:02:29.218Z,21.71
2022-08-26T08:04:58.502Z,21.73
2022-08-26T08:07:44.632Z,21.77
2022-08-26T08:10:21.162Z,21.94
2022-08-26T08:12:50.738Z,21.64
2022-08-26T08:15:24.885Z,21.93
2022-08-26T08:17:54.051Z,21.78
2022-08-26T08:20:24.500Z,21.96
2022-08-26T08:22:53.883Z,21.72
2022-08-26T08:25:23.101Z,21.72
2022-08-26T08:27:51.441Z,22.03
2022-08-26T08:30:22.783Z,22.23
2022-08-26T08:32:52.412Z,22.14
2022-08-26T08:35:22.446Z,22.28
2022-08-26T08:37:54.328Z,22.31
2022-08-26T08:40:25.600Z,22.13
2022-08-26T08:43:01.841Z,22.48
2022-08-26T08:45:43.551Z,22.56
2022-08-26T08:48:27.671Z,22.37
2022-08-26T08:51:33.570Z,22.46
2022-08-26T08:54:02.720Z,22.37
2022-08-26T08:56:35.050Z,22.37
2022-08-26T08:59:27.958Z,22.37
2022-08-26T09:02:33.308Z,22.41
2022-08-26T09:05:15.330Z,22.49
2022-08-26T09:07:57.701Z,22.57
2022-08-26T09:10:56.092Z,22.48
2022-08-26T09:13:26.295Z,22.25
2022-08-26T09:16:10.208Z,22.06
2022-08-26T09:18:59.254Z,21.79
2022-08-26T09:21:27.405Z,21.53
2022-08-26T09:23:56.686Z,21.42
2022-08-26T09:26:47.418Z,21.43
2022-08-26T09:31:49.902Z,21.93
2022-08-26T09:34:21.200Z,21.94
2022-08-26T09:36:58.440Z,22.10
2022-08-26T09:39:33.289Z,22.29
2022-08-26T09:42:06.376Z,22.56
2022-08-26T09:44:53.354Z,22.43
2022-08-26T09:47:47.032Z,22.33
2022-08-26T09:50:31.502Z,22.76
2022-08-26T09:53:16.337Z,22.62
2022-08-26T09:55:49.028Z,22.62
2022-08-26T09:58:40.692Z,22.51
2022-08-26T10:01:24.299Z,22.47
2022-08-26T10:03:52.571Z,22.66
2022-08-26T10:06:28.443Z,22.66
2022-08-26T10:09:00.008Z,23.00
2022-08-26T10:11:44.127Z,23.04
2022-08-26T10:14:39.393Z,23.49
2022-08-26T10:17:29.088Z,23.95
2022-08-26T10:20:23.229Z,24.21
2022-08-26T10:23:03.445Z,23.63
2022-08-26T10:25:59.247Z,23.48
2022-08-26T10:28:51.384Z,23.14
2022-08-26T10:31:40.507Z,22.83
2022-08-26T10:34:12.508Z,22.97
2022-08-26T10:37:16.709Z,22.84
2022-08-26T10:40:11.847Z,22.92
2022-08-26T10:42:53.134Z,22.81
2022-08-26T10:45:26.812Z,22.81
2022-08-26T10:48:01.686Z,23.36
2022-08-26T10:50:40.203Z,23.43
2022-08-26T10:53:46.724Z,23.28
2022-08-26T10:56:34.547Z,23.22
2022-08-26T10:59:36.711Z,23.10
2022-08-26T11:02:51.544Z,23.70
2022-08-26T11:05:23.502Z,23.54
2022-08-26T11:07:56.172Z,23.68
2022-08-26T11:10:24.730Z,23.94
2022-08-26T11:13:07.049Z,23.96
2022-08-26T11:15:40.905Z,23.83
2022-08-26T11:18:13.317Z,23.78
2022-08-26T11:20:45.989Z,23.49
2022-08-26T11:23:21.225Z,23.64
2022-08-26T11:26:11.016Z,23.71
2022-08-26T11:28:50.380Z,23.34
2022-08-26T11:31:27.260Z,23.02
2022-08-26T11:34:07.004Z,23.52
2022-08-26T11:36:52.770Z,24.08
2022-08-26T11:39:36.962Z,24.24
2022-08-26T11:42:41.577Z,24.19
2022-08-26T11:45:27.131Z,23.90
2022-08-26T11:47:55.179Z,24.13
2022-08-26T11:50:28.597Z,24.63
2022-08-26T11:53:06.174Z,24.40
2022-08-26T11:55:42.579Z,24.36
2022-08-26T11:58:13.598Z,23.99
2022-08-26T12:00:45.726Z,24.17
2022-08-26T12:03:21.775Z,24.01
2022-08-26T12:05:53.310Z,24.13
2022-08-26T12:08:28.960Z,23.92
2022-08-26T12:11:13.594Z,23.42
2022-08-26T12:13:42.734Z,23.51
2022-08-26T12:16:10.584Z,23.73
2022-08-26T12:18:39.920Z,23.69
2022-08-26T12:21:22.324Z,23.58
2022-08-26T12:23:55.695Z,23.73
2022-08-26T12:26:34.108Z,23.82
2022-08-26T12:29:19.894Z,23.79
2022-08-26T12:31:50.506Z,24.13
2022-08-26T12:34:18.769Z,23.83
2022-08-26T12:36:56.285Z,24.06
2022-08-26T12:39:37.839Z,24.29
2022-08-26T12:42:15.832Z,24.68
2022-08-26T12:44:59.944Z,24.21
2022-08-26T12:47:42.417Z,23.95
2022-08-26T12:50:31.829Z,23.76
2022-08-26T12:53:11.675Z,23.93
2022-08-26T12:56:00.570Z,23.44
2022-08-26T12:58:34.420Z,23.75
2022-08-26T13:01:06.002Z,23.86
2022-08-26T13:03:38.706Z,24.00
2022-08-26T13:06:25.974Z,24.07
2022-08-26T13:08:57.015Z,24.12
2022-08-26T13:11:35.319Z,23.96
2022-08-26T13:14:18.330Z,23.37
2022-08-26T13:16:53.309Z,23.62
2022-08-26T13:19:29.562Z,23.92
2022-08-26T13:21:59.905Z,23.86
2022-08-26T13:24:38.888Z,23.85
2022-08-26T13:27:09.791Z,23.92
2022-08-26T13:29:37.718Z,24.20
2022-08-26T13:32:07.811Z,24.54
2022-08-26T13:34:37.972Z,24.40
2022-08-26T13:37:06.562Z,24.35
2022-08-26T13:39:34.392Z,23.98
2022-08-26T13:42:02.050Z,24.31
2022-08-26T13:44:29.746Z,24.19
2022-08-26T13:46:57.386Z,24.56
2022-08-26T13:49:25.347Z,24.73
2022-08-26T13:51:53.084Z,24.85
2022-08-26T13:54:21.233Z,24.45
2022-08-26T13:56:48.924Z,24.19
2022-08-26T13:59:16.600Z,24.37
2022-08-26T14:01:44.357Z,24.20
2022-08-26T14:04:12.191Z,24.48
2022-08-26T14:06:42.410Z,24.76
2022-08-26T14:09:11.637Z,24.59
2022-08-26T14:11:54.646Z,24.42
2022-08-26T14:14:23.245Z,24.02
2022-08-26T14:16:59.779Z,24.20
2022-08-26T14:19:30.521Z,23.77
2022-08-26T14:22:00.831Z,23.74
2022-08-26T14:24:29.498Z,23.74
2022-08-26T14:26:57.212Z,23.59
2022-08-26T14:29:25.015Z,23.91
2022-08-26T14:31:54.923Z,24.13
2022-08-26T14:34:22.924Z,24.36
2022-08-26T14:36:50.804Z,24.33
2022-08-26T14:39:18.455Z,24.48
2022-08-26T14:41:54.567Z,24.73
2022-08-26T14:44:28.286Z,24.74
2022-08-26T14:46:56.604Z,25.03
2022-08-26T14:49:27.184Z,24.91
2022-08-26T14:51:57.371Z,24.88
2022-08-26T14:54:25.170Z,25.05
2022-08-26T14:56:54.398Z,25.14
2022-08-26T14:59:29.130Z,25.25
2022-08-26T15:01:58.112Z,25.04
2022-08-26T15:04:26.570Z,24.82
2022-08-26T15:06:56.707Z,25.11
2022-08-26T15:09:25.088Z,24.80
2022-08-26T15:11:53.853Z,24.55
2022-08-26T15:14:22.529Z,24.64
2022-08-26T15:16:55.889Z,24.39
2022-08-26T15:19:26.063Z,24.34
2022-08-26T15:21:54.036Z,24.31
2022-08-26T15:24:24.698Z,24.45
2022-08-26T15:26:53.168Z,24.21
2022-08-26T15:29:23.827Z,24.10
2022-08-26T15:31:51.842Z,24.26
2022-08-26T15:34:23.050Z,24.34
2022-08-26T15:36:51.146Z,24.52
2022-08-26T15:39:20.327Z,24.24
2022-08-26T15:41:50.571Z,23.81
2022-08-26T15:44:19.167Z,23.77
2022-08-26T15:46:50.235Z,23.88
2022-08-26T15:49:18.778Z,23.90
2022-08-26T15:51:50.401Z,23.69
2022-08-26T15:54:22.356Z,23.82
2022-08-26T15:56:52.394Z,23.93
2022-08-26T15:59:22.180Z,23.82
2022-08-26T16:01:51.292Z,23.96
2022-08-26T16:04:19.326Z,23.96
2022-08-26T16:06:50.275Z,23.81
2022-08-26T16:09:20.682Z,23.76
2022-08-26T16:11:48.454Z,23.82
2022-08-26T16:14:16.747Z,23.85
2022-08-26T16:16:45.116Z,23.64
2022-08-26T16:19:13.169Z,23.38
2022-08-26T16:21:41.749Z,23.32
2022-08-26T16:24:10.181Z,23.44
2022-08-26T16:26:40.360Z,23.16
2022-08-26T16:29:12.284Z,23.18
2022-08-26T16:31:40.813Z,23.30
2022-08-26T16:34:09.604Z,23.43
2022-08-26T16:36:39.367Z,23.39
2022-08-26T16:39:09.144Z,23.09
2022-08-26T16:41:37.534Z,23.37
2022-08-26T16:44:07.782Z,23.45
2022-08-26T16:46:36.200Z,23.04
2022-08-26T16:49:04.722Z,23.13
2022-08-26T16:51:37.822Z,23.08
2022-08-26T16:54:08.378Z,22.95
2022-08-26T16:56:37.191Z,22.82
2022-08-26T16:59:10.568Z,22.86
2022-08-26T17:01:39.106Z,22.94
2022-08-26T17:04:06.930Z,22.70
2022-08-26T17:06:34.786Z,22.56
2022-08-26T17:09:02.636Z,22.70
2022-08-26T17:11:30.795Z,22.80
2022-08-26T17:13:58.687Z,22.70
2022-08-26T17:16:27.452Z,22.60
2022-08-26T17:18:57.985Z,22.88
2022-08-26T17:21:29.417Z,22.72
2022-08-26T17:23:57.538Z,22.56
2022-08-26T17:26:26.449Z,22.46
2022-08-26T17:28:54.664Z,22.38
2022-08-26T17:31:24.290Z,22.30
2022-08-26T17:33:53.460Z,22.40
2022-08-26T17:36:27.957Z,22.14
2022-08-26T17:38:57.986Z,22.11
2022-08-26T17:41:27.376Z,22.12
2022-08-26T17:43:55.179Z,22.15
2022-08-26T17:46:23.550Z,22.12
2022-08-26T17:48:51.706Z,22.04
2022-08-26T17:51:20.031Z,22.18
2022-08-26T17:53:49.155Z,22.37
2022-08-26T17:56:23.824Z,22.21
2022-08-26T17:58:54.028Z,22.05
2022-08-26T18:01:26.209Z,22.15
2022-08-26T18:03:59.676Z,22.05
2022-08-26T18:06:30.557Z,22.28
2022-08-26T18:09:00.186Z,22.09
2022-08-26T18:11:29.622Z,21.83
2022-08-26T18:13:57.873Z,21.95
2022-08-26T18:16:26.595Z,21.83
2022-08-26T18:18:54.639Z,21.78
2022-08-26T18:21:25.794Z,21.73
2022-08-26T18:23:54.644Z,21.93
2022-08-26T18:26:31.801Z,21.79
2022-08-26T18:29:00.778Z,21.72
2022-08-26T18:31:30.325Z,21.86
2022-08-26T18:34:00.892Z,21.76
2022-08-26T18:36:35.373Z,21.69
2022-08-26T18:39:06.083Z,21.78
2022-08-26T18:41:45.250Z,21.63
2022-08-26T18:44:16.499Z,21.59
2022-08-26T18:46:46.011Z,21.77
2022-08-26T18:49:16.237Z,21.71
2022-08-26T18:51:45.233Z,21.59
2022-08-26T18:54:13.219Z,21.56
2022-08-26T18:56:42.334Z,21.63
2022-08-26T18:59:11.380Z,21.39
2022-08-26T19:01:42.293Z,21.55
2022-08-26T19:04:15.326Z,21.47
2022-08-26T19:06:47.117Z,21.50
2022-08-26T19:09:17.997Z,21.42
2022-08-26T19:11:47.185Z,21.23
2022-08-26T19:14:18.517Z,21.27
2022-08-26T19:16:49.654Z,21.28
2022-08-26T19:19:17.542Z,21.30
2022-08-26T19:21:45.862Z,21.07
2022-08-26T19:24:17.594Z,21.17
2022-08-26T19:26:51.362Z,21.11
2022-08-26T19:29:30.921Z,21.17
2022-08-26T19:31:59.408Z,21.02
2022-08-26T19:34:27.091Z,20.92
2022-08-26T19:36:56.993Z,21.08
2022-08-26T19:39:26.112Z,20.86
2022-08-26T19:41:54.024Z,21.03
2022-08-26T19:44:42.135Z,20.93
2022-08-26T19:47:15.684Z,20.99
2022-08-26T19:49:43.512Z,20.99
2022-08-26T19:52:12.259Z,20.87
2022-08-26T19:54:40.966Z,20.63
2022-08-26T19:57:08.712Z,20.51
2022-08-26T19:59:36.534Z,20.50
2022-08-26T20:02:10.037Z,20.32
2022-08-26T20:04:39.951Z,20.26
2022-08-26T20:07:13.062Z,20.31
2022-08-26T20:09:44.784Z,20.26
2022-08-26T20:12:13.229Z,20.16
2022-08-26T20:14:41.520Z,20.10
2022-08-26T20:17:09.562Z,20.03
2022-08-26T20:19:55.988Z,19.94
2022-08-26T20:22:24.504Z,19.91
2022-08-26T20:24:52.632Z,19.87
2022-08-26T20:27:27.388Z,19.83
2022-08-26T20:30:08.641Z,19.54
2022-08-26T20:32:38.396Z,19.50
2022-08-26T20:35:10.418Z,19.35
2022-08-26T20:37:39.501Z,19.31
2022-08-26T20:40:11.559Z,19.16
2022-08-26T20:42:39.731Z,18.99
2022-08-26T20:45:08.820Z,19.03
2022-08-26T20:47:36.754Z,18.95
2022-08-26T20:50:05.070Z,18.97
2022-08-26T20:52:32.788Z,18.86
2022-08-26T20:55:00.542Z,18.74
2022-08-26T20:57:28.596Z,18.95
2022-08-26T20:59:56.662Z,18.79
2022-08-26T21:02:24.338Z,18.83
2022-08-26T21:04:52.125Z,18.73
2022-08-26T21:07:20.764Z,18.85
2022-08-26T21:09:50.125Z,18.60
2022-08-26T21:12:19.381Z,18.69
2022-08-26T21:14:49.676Z,18.71
2022-08-26T21:17:17.573Z,18.63
2022-08-26T21:19:45.211Z,18.42
2022-08-26T21:22:12.975Z,18.57
2022-08-26T21:24:40.819Z,18.48
2022-08-26T21:27:09.375Z,18.37
2022-08-26T21:29:37.642Z,18.41
2022-08-26T21:32:06.105Z,18.22
2022-08-26T21:34:33.942Z,18.13
2022-08-26T21:37:01.664Z,18.25
2022-08-26T21:39:36.624Z,18.08
2022-08-26T21:42:07.635Z,18.07
2022-08-26T21:44:35.351Z,18.17
2022-08-26T21:47:04.869Z,18.10
2022-08-26T21:49:32.506Z,18.24
2022-08-26T21:52:02.827Z,18.22
2022-08-26T21:54:31.769Z,18.23
2022-08-26T21:56:59.630Z,18.09
2022-08-26T21:59:27.331Z,18.13
2022-08-26T22:01:55.011Z,18.07
2022-08-26T22:04:22.906Z,17.82
2022-08-26T22:06:54.299Z,17.98
2022-08-26T22:09:26.057Z,17.94
2022-08-26T22:11:56.550Z,17.83
2022-08-26T22:14:30.439Z,17.95
2022-08-26T22:16:59.706Z,17.88
2022-08-26T22:19:27.604Z,17.79
2022-08-26T22:21:56.063Z,17.80
2022-08-26T22:24:27.159Z,17.75
2022-08-26T22:26:55.563Z,17.72
2022-08-26T22:29:25.044Z,17.63
2022-08-26T22:31:53.275Z,17.72
2022-08-26T22:34:23.137Z,17.53
2022-08-26T22:36:51.033Z,17.64
2022-08-26T22:39:23.803Z,17.52
2022-08-26T22:41:53.453Z,17.37
2022-08-26T22:44:22.252Z,17.47
2022-08-26T22:46:54.266Z,17.49
2022-08-26T22:49:22.183Z,17.55
2022-08-26T22:51:50.971Z,17.47
2022-08-26T22:54:19.343Z,17.34
2022-08-26T22:56:47.007Z,17.28
2022-08-26T22:59:16.173Z,17.09
2022-08-26T23:01:44.907Z,17.09
2022-08-26T23:04:13.160Z,17.13
2022-08-26T23:06:43.462Z,17.13
2022-08-26T23:09:18.211Z,16.85
2022-08-26T23:11:48.585Z,16.83
2022-08-26T23:14:18.551Z,17.04
2022-08-26T23:16:47.889Z,16.77
2022-08-26T23:19:18.243Z,16.90
2022-08-26T23:21:46.325Z,16.61
2022-08-26T23:24:14.924Z,16.71
2022-08-26T23:26:43.571Z,16.86
2022-08-26T23:29:13.792Z,16.87
2022-08-26T23:31:42.273Z,16.75
2022-08-26T23:34:29.442Z,16.80
2022-08-26T23:36:59.163Z,16.82
2022-08-26T23:39:28.071Z,16.79
2022-08-26T23:41:56.868Z,16.86
2022-08-26T23:44:26.497Z,16.81
2022-08-26T23:46:55.087Z,16.46
2022-08-26T23:49:23.189Z,16.54
2022-08-26T23:52:09.643Z,16.63
2022-08-26T23:54:39.038Z,16.65
2022-08-26T23:57:08.024Z,16.43
2022-08-26T23:59:38.433Z,16.34
